createdAt,value
2023-04-09T00:04:38.658Z,4.10
2023-04-09T00:09:41.471Z,4.30
2023-04-09T00:14:44.296Z,4.03
2023-04-09T00:19:47.492Z,4.38
2023-04-09T00:24:50.288Z,4.18
2023-04-09T00:29:56.991Z,4.13
2023-04-09T00:34:59.975Z,5.32
2023-04-09T00:40:03.289Z,5.47
2023-04-09T00:45:07.113Z,4.00
2023-04-09T00:50:10.601Z,3.85
2023-04-09T00:55:14.358Z,4.03
2023-04-09T01:00:17.315Z,3.70
2023-04-09T01:05:20.653Z,3.67
2023-04-09T01:10:32.852Z,4.15
2023-04-09T01:15:41.689Z,4.10
2023-04-09T01:20:57.804Z,3.45
2023-04-09T01:26:19.565Z,4.47
2023-04-09T01:31:34.652Z,3.92
2023-04-09T01:36:41.081Z,4.10
2023-04-09T01:41:44.368Z,4.20
2023-04-09T01:46:48.543Z,3.60
2023-04-09T01:51:51.516Z,3.78
2023-04-09T01:56:54.452Z,3.55
2023-04-09T02:02:05.427Z,3.28
2023-04-09T02:07:26.201Z,3.80
2023-04-09T02:12:32.153Z,3.42
2023-04-09T02:17:35.300Z,3.20
2023-04-09T02:22:39.550Z,3.10
2023-04-09T02:27:42.272Z,3.53
2023-04-09T02:32:44.983Z,3.45
2023-04-09T02:37:47.665Z,3.28
2023-04-09T02:42:52.026Z,3.30
2023-04-09T02:47:54.890Z,3.17
2023-04-09T02:52:57.491Z,3.83
2023-04-09T02:58:02.534Z,4.57
2023-04-09T03:03:05.420Z,4.20
2023-04-09T03:08:08.404Z,3.35
2023-04-09T03:13:14.036Z,3.60
2023-04-09T03:18:16.898Z,3.97
2023-04-09T03:23:19.706Z,4.32
2023-04-09T03:28:24.068Z,4.38
2023-04-09T03:33:29.284Z,3.83
2023-04-09T03:38:34.764Z,4.10
2023-04-09T03:43:44.232Z,3.50
2023-04-09T03:48:50.030Z,3.88
2023-04-09T03:53:53.532Z,2.80
2023-04-09T03:58:56.573Z,2.85
2023-04-09T04:04:08.501Z,2.58
2023-04-09T04:09:25.108Z,2.38
2023-04-09T04:14:39.785Z,2.33
2023-04-09T04:19:52.858Z,2.00
2023-04-09T04:24:56.429Z,2.20
2023-04-09T04:30:02.430Z,1.95
2023-04-09T04:35:28.079Z,1.70
2023-04-09T04:40:35.619Z,2.13
2023-04-09T04:45:38.990Z,2.08
2023-04-09T04:50:47.185Z,1.67
2023-04-09T04:55:50.775Z,1.70
2023-04-09T05:01:00.709Z,2.17
2023-04-09T05:06:06.497Z,1.98
2023-04-09T05:11:18.358Z,2.28
2023-04-09T05:16:23.765Z,2.05
2023-04-09T05:21:35.541Z,1.90
2023-04-09T05:26:38.857Z,2.10
2023-04-09T05:31:43.338Z,2.05
2023-04-09T05:37:06.291Z,2.00
2023-04-09T05:42:10.355Z,1.88
2023-04-09T05:47:31.552Z,2.38
2023-04-09T05:52:42.491Z,2.10
2023-04-09T05:57:47.340Z,2.10
2023-04-09T06:02:51.309Z,1.98
2023-04-09T06:07:54.844Z,1.83
2023-04-09T06:12:57.911Z,1.98
2023-04-09T06:18:01.546Z,1.88
2023-04-09T06:23:04.592Z,1.92
2023-04-09T06:28:07.806Z,1.90
2023-04-09T06:33:11.810Z,2.35
2023-04-09T06:38:18.819Z,2.50
2023-04-09T06:43:22.008Z,2.65
2023-04-09T06:48:27.012Z,2.05
2023-04-09T06:53:29.791Z,2.08
2023-04-09T06:58:32.547Z,2.03
2023-04-09T07:03:35.855Z,2.05
2023-04-09T07:08:38.677Z,1.98
2023-04-09T07:13:41.316Z,1.98
2023-04-09T07:18:44.163Z,1.73
2023-04-09T07:23:47.170Z,2.00
2023-04-09T07:28:50.366Z,2.45
2023-04-09T07:33:53.289Z,2.15
2023-04-09T07:38:56.569Z,2.08
2023-04-09T07:44:03.525Z,2.08
2023-04-09T07:49:07.355Z,2.40
2023-04-09T07:54:10.297Z,2.05
2023-04-09T07:59:13.114Z,2.08
2023-04-09T08:04:16.049Z,1.98
2023-04-09T08:14:21.586Z,1.80
2023-04-09T08:19:25.234Z,1.73
2023-04-09T08:24:28.466Z,2.35
2023-04-09T08:29:32.357Z,2.47
2023-04-09T08:34:35.164Z,2.60
2023-04-09T08:39:38.868Z,2.40
2023-04-09T08:44:41.700Z,2.30
2023-04-09T08:49:44.426Z,2.10
2023-04-09T08:54:47.405Z,2.25
2023-04-09T09:04:55.405Z,2.50
2023-04-09T09:10:00.482Z,2.22
2023-04-09T09:15:03.575Z,2.15
2023-04-09T09:20:36.142Z,2.30
2023-04-09T09:25:41.912Z,2.10
2023-04-09T09:30:48.621Z,2.50
2023-04-09T09:35:55.388Z,1.98
2023-04-09T09:41:02.168Z,2.70
2023-04-09T09:46:05.430Z,2.60
2023-04-09T09:51:11.362Z,2.58
2023-04-09T09:56:22.073Z,2.08
2023-04-09T10:01:28.350Z,1.92
2023-04-09T10:06:38.959Z,2.25
2023-04-09T10:11:48.184Z,2.13
2023-04-09T10:21:59.878Z,2.78
2023-04-09T10:27:16.199Z,2.38
2023-04-09T10:32:26.865Z,2.33
2023-04-09T10:37:30.238Z,3.03
2023-04-09T10:42:39.178Z,2.75
2023-04-09T10:47:51.207Z,3.55
2023-04-09T10:53:00.440Z,3.20
2023-04-09T10:58:10.452Z,2.65
2023-04-09T11:03:22.210Z,1.73
2023-04-09T11:08:29.234Z,2.00
2023-04-09T11:13:33.016Z,2.53
2023-04-09T11:18:37.392Z,2.13
2023-04-09T11:23:40.268Z,3.92
2023-04-09T11:28:44.073Z,3.38
2023-04-09T11:33:47.526Z,3.20
2023-04-09T11:38:51.885Z,2.47
2023-04-09T11:43:54.723Z,2.58
2023-04-09T11:48:57.580Z,2.47
2023-04-09T11:54:03.969Z,2.38
2023-04-09T11:59:08.188Z,2.72
2023-04-09T12:04:20.822Z,2.25
2023-04-09T12:09:25.772Z,1.85
2023-04-09T12:14:28.441Z,2.10
2023-04-09T12:19:31.935Z,3.42
2023-04-09T12:24:34.644Z,2.83
2023-04-09T12:29:37.453Z,3.70
2023-04-09T12:34:40.153Z,3.50
2023-04-09T12:39:43.148Z,2.53
2023-04-09T12:44:46.122Z,3.60
2023-04-09T12:49:50.507Z,2.92
2023-04-09T12:54:53.326Z,2.28
2023-04-09T13:00:00.119Z,2.17
2023-04-09T13:05:03.867Z,2.97
2023-04-09T13:10:07.534Z,2.45
2023-04-09T13:15:30.291Z,2.63
2023-04-09T13:20:53.469Z,2.97
2023-04-09T13:26:00.635Z,2.38
2023-04-09T13:31:23.369Z,3.45
2023-04-09T13:36:28.135Z,2.95
2023-04-09T13:41:32.894Z,2.97
2023-04-09T13:46:54.114Z,2.33
2023-04-09T13:52:15.612Z,3.10
2023-04-09T13:57:36.960Z,2.30
2023-04-09T14:02:40.249Z,2.72
2023-04-09T14:07:46.157Z,2.60
2023-04-09T14:12:49.664Z,3.78
2023-04-09T14:17:52.573Z,4.28
2023-04-09T14:22:55.555Z,3.10
2023-04-09T14:27:59.313Z,3.75
2023-04-09T14:33:04.303Z,3.47
2023-04-09T14:38:07.086Z,3.35
2023-04-09T14:43:09.967Z,3.38
2023-04-09T14:48:12.856Z,3.17
2023-04-09T14:53:15.580Z,2.83
2023-04-09T14:58:18.292Z,3.00
2023-04-09T15:03:22.588Z,2.95
2023-04-09T15:13:28.523Z,4.38
2023-04-09T15:18:31.936Z,3.47
2023-04-09T15:23:35.772Z,3.65
2023-04-09T15:28:38.464Z,3.88
2023-04-09T15:33:44.110Z,3.83
2023-04-09T15:38:47.025Z,3.25
2023-04-09T15:43:51.275Z,3.90
2023-04-09T15:48:54.014Z,4.03
2023-04-09T15:53:57.326Z,4.18
2023-04-09T15:59:02.324Z,4.80
2023-04-09T16:04:05.954Z,5.10
2023-04-09T16:09:08.753Z,7.10
2023-04-09T16:14:11.864Z,8.10
2023-04-09T16:19:18.600Z,8.77
2023-04-09T16:24:22.621Z,8.85
2023-04-09T16:29:25.878Z,10.65
2023-04-09T16:34:32.231Z,10.07
2023-04-09T16:39:35.654Z,8.65
2023-04-09T16:44:38.299Z,7.90
2023-04-09T16:49:41.428Z,8.27
2023-04-09T16:54:45.831Z,9.05
2023-04-09T16:59:51.188Z,9.80
2023-04-09T17:04:54.718Z,10.70
2023-04-09T17:10:00.177Z,9.95
2023-04-09T17:15:02.944Z,9.65
2023-04-09T17:20:07.321Z,9.02
2023-04-09T17:25:10.446Z,10.70
2023-04-09T17:30:14.005Z,9.23
2023-04-09T17:35:21.097Z,9.55
2023-04-09T17:40:23.972Z,10.50
2023-04-09T17:45:29.040Z,10.48
2023-04-09T17:50:33.897Z,9.88
2023-04-09T17:55:37.269Z,11.48
2023-04-09T18:00:41.537Z,10.55
2023-04-09T18:05:44.542Z,10.38
2023-04-09T18:11:04.807Z,12.25
2023-04-09T18:16:14.719Z,13.70
2023-04-09T18:21:19.439Z,13.98
2023-04-09T18:26:22.827Z,13.57
2023-04-09T18:31:28.407Z,15.77
2023-04-09T18:36:31.395Z,15.80
2023-04-09T18:41:34.595Z,15.18
2023-04-09T18:46:37.837Z,19.48
2023-04-09T18:51:42.080Z,18.10
2023-04-09T18:56:47.224Z,18.35
2023-04-09T19:01:52.497Z,17.13
2023-04-09T19:06:55.544Z,16.52
2023-04-09T19:11:58.408Z,18.27
2023-04-09T19:17:03.031Z,13.75
2023-04-09T19:22:05.771Z,11.57
2023-04-09T19:27:10.152Z,13.13
2023-04-09T19:32:13.583Z,12.15
2023-04-09T19:37:19.069Z,11.15
2023-04-09T19:42:21.978Z,9.40
2023-04-09T19:52:30.636Z,12.45
2023-04-09T19:57:33.503Z,9.45
2023-04-09T20:02:38.039Z,10.30
2023-04-09T20:07:41.227Z,9.63
2023-04-09T20:12:48.376Z,9.95
2023-04-09T20:17:51.669Z,10.10
2023-04-09T20:22:56.389Z,10.23
2023-04-09T20:27:59.265Z,10.95
2023-04-09T20:33:02.369Z,10.90
2023-04-09T20:38:05.612Z,10.30
2023-04-09T20:43:08.248Z,9.93
2023-04-09T20:48:11.251Z,8.85
2023-04-09T20:53:14.059Z,8.68
2023-04-09T20:58:17.125Z,8.73
2023-04-09T21:03:20.264Z,10.70
2023-04-09T21:08:23.260Z,9.52
2023-04-09T21:13:27.657Z,11.02
2023-04-09T21:18:30.988Z,10.95
2023-04-09T21:23:33.703Z,11.13
2023-04-09T21:28:36.803Z,11.20
2023-04-09T21:33:39.865Z,10.98
2023-04-09T21:38:42.558Z,12.52
2023-04-09T21:43:45.273Z,11.63
2023-04-09T21:48:47.982Z,10.45
2023-04-09T21:53:50.884Z,10.23
2023-04-09T21:58:53.894Z,10.50
2023-04-09T22:04:00.602Z,12.38
2023-04-09T22:09:03.667Z,11.63
2023-04-09T22:14:06.578Z,11.32
2023-04-09T22:19:09.797Z,12.07
2023-04-09T22:24:14.386Z,11.63
2023-04-09T22:29:17.269Z,11.25
2023-04-09T22:34:21.728Z,12.10
2023-04-09T22:39:25.138Z,11.50
2023-04-09T22:44:28.179Z,11.40
2023-04-09T22:49:31.413Z,10.55
2023-04-09T22:54:34.009Z,9.05
2023-04-09T22:59:40.632Z,8.45
2023-04-09T23:04:43.975Z,7.72
2023-04-09T23:09:46.828Z,6.10
2023-04-09T23:14:51.471Z,6.53
2023-04-09T23:19:54.531Z,5.65
2023-04-09T23:24:58.212Z,5.57
2023-04-09T23:30:01.526Z,5.60
2023-04-09T23:35:04.956Z,4.57
2023-04-09T23:40:08.444Z,4.85
2023-04-09T23:45:11.969Z,4.32
2023-04-09T23:50:14.821Z,4.32
2023-04-09T23:55:17.992Z,4.25
